logo
Search for airport 
image banner adimage banner adimage banner ad
image banner ad

CSV2 - Ste-Agathe (Aim)

Located in , Canada

ICAO - CSV2, IATA -

Data provided by Airmate  

General information

Coordinates: N46°7'0" W74°18'0"
Elevation is 1250 feet MSL.
Magnetic variation is -15° East
View others Airports in Quebec

Operational data

Special qualification required
Current time UTC:
Current local time:
Weather at : CYMX - Montreal Intl (Mirabel) ( 53 km )
METAR: CYMX 231028Z 23006KT 200V260 2SM -DZ BKN003 OVC009 02/02 A2949 RMK ST6SC2 SLP991
TAF: TAF CYMX 230540Z 2306/2406 VRB03KT P6SM OVC005 TEMPO 2306/2314 2SM -DZ BR OVC003 FM231400 23006KT P6SM OVC008 TEMPO 2314/2317 OVC012 FM231700 23008KT P6SM OVC015 FM232000 24010G20KT P6SM OVC015 TEMPO 2320/2323 P6SM -RA BECMG 2321/2323 31012G22KT FM232300 31012G22KT P6SM OVC040 FM240400 35008KT P6SM SCT015 RMK NXT FCST BY 231200Z
View NOTAMs / SUP AIP / TFR affecting this airport [VIEW]
Communications frequencies: [VIEW]

Runways:

Airport contact information

Address: Canada

Satellite view of CSV2